createdAt,value
2016-04-04T00:00:02.062Z,57.7
2016-04-04T00:01:02.065Z,57.6
2016-04-04T00:02:02.067Z,57.79
2016-04-04T00:03:02.071Z,57.89
2016-04-04T00:04:02.057Z,57.89
2016-04-04T00:05:02.076Z,57.7
2016-04-04T00:06:02.078Z,58.17
2016-04-04T00:07:02.065Z,57.89
2016-04-04T00:08:02.068Z,58.36
2016-04-04T00:09:02.070Z,58.94
2016-04-04T00:10:02.089Z,58.36
2016-04-04T00:11:02.076Z,58.75
2016-04-04T00:12:02.079Z,58.55
2016-04-04T00:13:02.066Z,58.26
2016-04-04T00:14:02.069Z,58.94
2016-04-04T00:15:02.072Z,58.94
2016-04-04T00:16:02.090Z,59.03
2016-04-04T00:17:02.077Z,58.84
2016-04-04T00:18:02.079Z,58.46
2016-04-04T00:19:02.066Z,58.26
2016-04-04T00:20:02.085Z,58.55
2016-04-04T00:21:02.072Z,58.55
2016-04-04T00:22:02.075Z,58.55
2016-04-04T00:23:02.077Z,58.17
2016-04-04T00:24:02.080Z,57.98
2016-04-04T00:25:02.082Z,58.29
2016-04-04T00:26:02.085Z,57.92
2016-04-04T00:27:02.072Z,58.26
2016-04-04T00:28:02.075Z,58.01
2016-04-04T00:29:02.077Z,58.2
2016-04-04T00:30:02.096Z,58.29
2016-04-04T00:31:02.098Z,58.29
2016-04-04T00:32:02.085Z,57.72
2016-04-04T00:33:02.088Z,57.72
2016-04-04T00:34:02.091Z,58.01
2016-04-04T00:35:02.093Z,58.01
2016-04-04T00:36:02.081Z,58.2
2016-04-04T00:37:02.083Z,58.11
2016-04-04T00:38:02.086Z,58.11
2016-04-04T00:39:02.090Z,58.11
2016-04-04T00:40:02.091Z,57.92
2016-04-04T00:41:02.079Z,58.11
2016-04-04T00:42:02.097Z,58.29
2016-04-04T00:43:02.099Z,58.68
2016-04-04T00:44:02.086Z,58.11
2016-04-04T00:45:02.090Z,58.01
2016-04-04T00:46:02.092Z,58.87
2016-04-04T00:47:02.111Z,58.75
2016-04-04T00:48:02.097Z,58.77
2016-04-04T00:49:02.100Z,58.46
2016-04-04T00:50:02.102Z,59.12
2016-04-04T00:51:02.152Z,58.84
2016-04-04T00:52:02.093Z,58.94
2016-04-04T00:53:02.096Z,58.55
2016-04-04T00:54:02.098Z,58.94
2016-04-04T00:55:02.101Z,58.75
2016-04-04T00:56:02.104Z,58.65
2016-04-04T00:57:02.091Z,58.75
2016-04-04T00:58:02.093Z,58.84
2016-04-04T00:59:02.112Z,58.65
2016-04-04T01:00:02.129Z,58.65
2016-04-04T01:01:02.101Z,58.97
2016-04-04T01:02:02.104Z,58.94
2016-04-04T01:03:02.091Z,58.65
2016-04-04T01:04:02.110Z,58.77
2016-04-04T01:05:02.096Z,58.94
2016-04-04T01:06:02.099Z,58.84
2016-04-04T01:07:02.118Z,58.84
2016-04-04T01:08:02.105Z,58.65
2016-04-04T01:09:02.107Z,58.87
2016-04-04T01:10:02.110Z,58.68
2016-04-04T01:11:02.113Z,58.87
2016-04-04T01:12:02.115Z,58.94
2016-04-04T01:13:02.118Z,58.97
2016-04-04T01:14:02.105Z,59.41
2016-04-04T01:15:02.108Z,59.22
2016-04-04T01:16:02.111Z,59.03
2016-04-04T01:17:02.113Z,59.41
2016-04-04T01:18:02.116Z,59.41
2016-04-04T01:19:02.103Z,59.12
2016-04-04T01:20:02.121Z,59.31
2016-04-04T01:21:02.124Z,59.03
2016-04-04T01:22:02.111Z,59.7
2016-04-04T01:23:02.114Z,59.6
2016-04-04T01:24:02.117Z,59.92
2016-04-04T01:25:02.119Z,59.92
2016-04-04T01:26:02.122Z,59.73
2016-04-04T01:27:02.108Z,59.73
2016-04-04T01:28:02.127Z,59.82
2016-04-04T01:29:02.113Z,59.73
2016-04-04T01:30:02.116Z,59.73
2016-04-04T01:31:02.119Z,59.73
2016-04-04T01:32:02.122Z,60.21
2016-04-04T01:33:02.125Z,60.11
2016-04-04T01:34:02.112Z,60.39
2016-04-04T01:35:02.115Z,60.39
2016-04-04T01:36:02.118Z,61.35
2016-04-04T01:37:02.121Z,61.07
2016-04-04T01:38:02.123Z,61.19
2016-04-04T01:39:02.126Z,61.1
2016-04-04T01:40:02.129Z,61.19
2016-04-04T01:41:02.115Z,61.19
2016-04-04T01:42:02.118Z,61.19
2016-04-04T01:43:02.136Z,61.66
2016-04-04T01:44:02.123Z,61.66
2016-04-04T01:45:02.126Z,61.47
2016-04-04T01:46:02.128Z,61.29
2016-04-04T01:47:02.116Z,61.1
2016-04-04T01:48:02.133Z,61.1
2016-04-04T01:49:02.136Z,61.1
2016-04-04T01:50:02.124Z,61.38
2016-04-04T01:51:02.141Z,61.38
2016-04-04T01:52:02.129Z,60.71
2016-04-04T01:53:02.132Z,60.61
2016-04-04T01:54:02.134Z,60.42
2016-04-04T01:55:02.137Z,60.33
2016-04-04T01:56:02.140Z,60.52
2016-04-04T01:57:02.127Z,60.61
2016-04-04T01:58:02.145Z,60.52
2016-04-04T01:59:02.132Z,60.33
2016-04-04T02:00:02.140Z,60.33
2016-04-04T02:01:02.127Z,60.71
2016-04-04T02:02:02.130Z,61.47
2016-04-04T02:03:02.132Z,61.19
2016-04-04T02:04:02.135Z,61
2016-04-04T02:05:02.137Z,60.9
2016-04-04T02:06:02.156Z,61.19
2016-04-04T02:07:02.143Z,61.29
2016-04-04T02:08:02.145Z,61.16
2016-04-04T02:09:02.148Z,61.29
2016-04-04T02:10:02.151Z,61.66
2016-04-04T02:11:02.139Z,61.35
2016-04-04T02:12:02.141Z,61.63
2016-04-04T02:13:02.144Z,61.83
2016-04-04T02:14:02.147Z,61.73
2016-04-04T02:15:02.150Z,61.54
2016-04-04T02:16:02.136Z,62.21
2016-04-04T02:17:02.139Z,61.92
2016-04-04T02:18:02.141Z,61.83
2016-04-04T02:19:02.144Z,62.11
2016-04-04T02:20:02.147Z,62.4
2016-04-04T02:21:02.150Z,62.49
2016-04-04T02:22:02.137Z,62.11
2016-04-04T02:23:02.139Z,62.78
2016-04-04T02:24:02.142Z,62.4
2016-04-04T02:25:02.160Z,62.59
2016-04-04T02:26:02.147Z,62.68
2016-04-04T02:27:02.135Z,62.59
2016-04-04T02:28:02.138Z,63.26
2016-04-04T02:29:02.171Z,62.97
2016-04-04T02:30:02.158Z,63.07
2016-04-04T02:31:02.161Z,62.97
2016-04-04T02:32:02.148Z,63.26
2016-04-04T02:33:02.151Z,63.35
2016-04-04T02:34:02.154Z,63.45
2016-04-04T02:35:02.171Z,63.45
2016-04-04T02:36:02.159Z,63.92
2016-04-04T02:37:02.162Z,63.83
2016-04-04T02:38:02.148Z,64.21
2016-04-04T02:39:02.151Z,63.83
2016-04-04T02:40:02.154Z,64.4
2016-04-04T02:41:02.156Z,64.4
2016-04-04T02:42:02.159Z,64.59
2016-04-04T02:43:02.162Z,64.59
2016-04-04T02:44:02.165Z,64.4
2016-04-04T02:45:02.167Z,64.4
2016-04-04T02:46:02.170Z,64.21
2016-04-04T02:47:02.154Z,64.88
2016-04-04T02:48:02.175Z,64.94
2016-04-04T02:49:02.159Z,64.65
2016-04-04T02:50:02.162Z,65.33
2016-04-04T02:51:02.149Z,65.33
2016-04-04T02:52:02.152Z,65.7
2016-04-04T02:53:02.155Z,65.52
2016-04-04T02:54:02.157Z,65.8
2016-04-04T02:55:02.160Z,66.18
2016-04-04T02:56:02.163Z,66.18
2016-04-04T02:57:02.165Z,66.47
2016-04-04T02:58:02.169Z,66.75
2016-04-04T02:59:02.155Z,66.75
2016-04-04T03:00:02.158Z,67.04
2016-04-04T03:01:02.160Z,67.14
2016-04-04T03:02:02.164Z,67.1
2016-04-04T03:03:02.166Z,67.96
2016-04-04T03:04:02.168Z,67.86
2016-04-04T03:05:02.157Z,67.96
2016-04-04T03:06:02.174Z,68.34
2016-04-04T03:07:02.162Z,68.85
2016-04-04T03:08:02.032Z,69.1
2016-04-04T03:09:02.175Z,68.72
2016-04-04T03:10:02.194Z,69.58
2016-04-04T03:11:02.165Z,69.81
2016-04-04T03:12:02.168Z,69.77
2016-04-04T03:13:02.171Z,69.77
2016-04-04T03:14:02.017Z,70.25
2016-04-04T03:15:02.176Z,70.06
2016-04-04T03:16:02.163Z,70.63
2016-04-04T03:17:02.181Z,70.63
2016-04-04T03:18:02.184Z,70.44
2016-04-04T03:19:02.171Z,70.82
2016-04-04T03:20:02.174Z,71.01
2016-04-04T03:21:02.176Z,70.92
2016-04-04T03:22:02.179Z,71.3
2016-04-04T03:23:02.182Z,70.92
2016-04-04T03:24:02.169Z,71.43
2016-04-04T03:25:02.172Z,71.14
2016-04-04T03:26:02.175Z,70.95
2016-04-04T03:27:02.177Z,71.14
2016-04-04T03:28:02.180Z,71.04
2016-04-04T03:29:02.183Z,71.33
2016-04-04T03:30:02.169Z,71.14
2016-04-04T03:31:02.172Z,71.43
2016-04-04T03:32:02.175Z,71.48
2016-04-04T03:33:02.177Z,71.68
2016-04-04T03:34:02.180Z,71.77
2016-04-04T03:35:02.199Z,71.58
2016-04-04T03:36:02.186Z,72.16
2016-04-04T03:37:02.188Z,72.16
2016-04-04T03:38:02.191Z,72.16
2016-04-04T03:39:02.178Z,72.06
2016-04-04T03:40:02.181Z,72.16
2016-04-04T03:41:02.199Z,72.44
2016-04-04T03:42:02.185Z,72.44
2016-04-04T03:43:02.189Z,72.82
2016-04-04T03:44:02.191Z,72.92
2016-04-04T03:45:02.178Z,72.92
2016-04-04T03:46:02.197Z,73.01
2016-04-04T03:47:02.185Z,73.49
2016-04-04T03:48:02.187Z,73.58
2016-04-04T03:49:02.189Z,73.87
2016-04-04T03:50:02.193Z,73.58
2016-04-04T03:51:02.195Z,73.77
2016-04-04T03:52:02.181Z,73.77
2016-04-04T03:53:02.184Z,73.96
2016-04-04T03:54:02.218Z,74.25
2016-04-04T03:55:02.190Z,74.06
2016-04-04T03:56:02.192Z,73.96
2016-04-04T03:57:02.195Z,74.25
2016-04-04T03:58:02.182Z,74.69
2016-04-04T03:59:02.201Z,74.6
2016-04-04T04:00:02.187Z,74.69
2016-04-04T04:01:02.190Z,74.79
2016-04-04T04:02:02.193Z,75.07
2016-04-04T04:03:02.195Z,75.16
2016-04-04T04:04:02.198Z,74.98
2016-04-04T04:05:02.201Z,75.55
2016-04-04T04:06:02.204Z,75.16
2016-04-04T04:07:02.192Z,76.03
2016-04-04T04:08:02.195Z,75.51
2016-04-04T04:09:02.244Z,75.79
2016-04-04T04:10:02.200Z,75.89
2016-04-04T04:11:02.203Z,76.18
2016-04-04T04:12:02.189Z,76.27
2016-04-04T04:13:02.208Z,76.65
2016-04-04T04:14:02.195Z,76.75
2016-04-04T04:15:02.198Z,76.75
2016-04-04T04:16:02.200Z,77.03
2016-04-04T04:17:02.203Z,77.61
2016-04-04T04:18:02.206Z,77.32
2016-04-04T04:19:02.208Z,77.13
2016-04-04T04:20:02.196Z,77.8
2016-04-04T04:21:02.198Z,77.51
2016-04-04T04:22:02.202Z,78.08
2016-04-04T04:23:02.204Z,77.89
2016-04-04T04:24:02.206Z,78.27
2016-04-04T04:25:02.210Z,78.33
2016-04-04T04:26:02.212Z,78.61
2016-04-04T04:27:02.215Z,78.65
2016-04-04T04:28:02.201Z,78.61
2016-04-04T04:29:02.205Z,78.9
2016-04-04T04:30:02.207Z,78.99
2016-04-04T04:31:02.209Z,79.28
2016-04-04T04:32:02.212Z,79.19
2016-04-04T04:33:02.214Z,79.28
2016-04-04T04:34:02.218Z,79.28
2016-04-04T04:35:02.204Z,79.57
2016-04-04T04:36:02.207Z,79.28
2016-04-04T04:37:02.226Z,79.38
2016-04-04T04:38:02.212Z,79.47
2016-04-04T04:39:02.215Z,78.99
2016-04-04T04:40:02.217Z,79.38
2016-04-04T04:41:02.221Z,80.13
2016-04-04T04:42:02.208Z,80.04
2016-04-04T04:43:02.211Z,79.85
2016-04-04T04:44:02.213Z,80
2016-04-04T04:45:02.216Z,79.43
2016-04-04T04:46:02.203Z,79.57
2016-04-04T04:47:02.205Z,79.52
2016-04-04T04:48:02.208Z,80.19
2016-04-04T04:49:02.211Z,80.38
2016-04-04T04:50:02.214Z,80.66
2016-04-04T04:51:02.216Z,80.47
2016-04-04T04:52:02.219Z,80.57
2016-04-04T04:53:02.206Z,80.86
2016-04-04T04:54:02.208Z,81.14
2016-04-04T04:55:02.211Z,81.05
2016-04-04T04:56:02.213Z,81.05
2016-04-04T04:57:02.216Z,80.86
2016-04-04T04:58:02.219Z,81.33
2016-04-04T04:59:02.222Z,81.62
2016-04-04T05:00:02.209Z,81.71
2016-04-04T05:01:02.368Z,82.19
2016-04-04T05:02:02.215Z,82.09
2016-04-04T05:03:02.217Z,81.81
2016-04-04T05:04:02.221Z,81.71
2016-04-04T05:05:02.223Z,81.71
2016-04-04T05:06:02.226Z,81.71
2016-04-04T05:07:02.228Z,82
2016-04-04T05:08:02.215Z,82.57
2016-04-04T05:09:02.218Z,82.57
2016-04-04T05:10:02.220Z,82.38
2016-04-04T05:11:02.223Z,82.28
2016-04-04T05:12:02.225Z,82.38
2016-04-04T05:13:02.229Z,82.38
2016-04-04T05:14:02.231Z,82.19
2016-04-04T05:15:02.218Z,82.48
2016-04-04T05:16:02.222Z,82.38
2016-04-04T05:17:02.225Z,82.48
2016-04-04T05:18:02.227Z,82.48
2016-04-04T05:19:02.229Z,82.67
2016-04-04T05:20:02.217Z,82.51
2016-04-04T05:21:02.219Z,82.42
2016-04-04T05:22:02.221Z,82.32
2016-04-04T05:23:02.224Z,82.61
2016-04-04T05:24:02.230Z,82.14
2016-04-04T05:25:02.230Z,82.32
2016-04-04T05:26:02.216Z,82.32
2016-04-04T05:27:02.366Z,82.51
2016-04-04T05:28:02.254Z,82.61
2016-04-04T05:29:02.224Z,81.95
2016-04-04T05:30:02.227Z,81.76
2016-04-04T05:31:02.230Z,81.66
2016-04-04T05:32:02.233Z,81.56
2016-04-04T05:33:02.235Z,81.6
2016-04-04T05:34:02.238Z,81.6
2016-04-04T05:35:02.350Z,80.94
2016-04-04T05:36:02.228Z,81.32
2016-04-04T05:37:02.231Z,81.03
2016-04-04T05:38:02.234Z,80.65
2016-04-04T05:39:02.237Z,80.27
2016-04-04T05:40:02.223Z,79.89
2016-04-04T05:41:02.226Z,80.08
2016-04-04T05:42:02.228Z,80.41
2016-04-04T05:43:02.231Z,80.12
2016-04-04T05:44:02.234Z,80.02
2016-04-04T05:45:02.236Z,79.07
2016-04-04T05:46:02.240Z,78.06
2016-04-04T05:47:02.242Z,77.78
2016-04-04T05:48:02.245Z,76.73
2016-04-04T05:49:02.232Z,75.43
2016-04-04T05:50:02.250Z,74.67
2016-04-04T05:51:02.237Z,73.66
2016-04-04T05:52:02.239Z,72.51
2016-04-04T05:53:02.242Z,72.07
2016-04-04T05:54:02.244Z,70.64
2016-04-04T05:55:02.248Z,69.91
2016-04-04T05:56:02.235Z,68.48
2016-04-04T05:57:02.237Z,67.55
2016-04-04T05:58:02.256Z,66.6
2016-04-04T05:59:02.244Z,65.77
2016-04-04T06:00:02.246Z,64.43
2016-04-04T06:01:02.248Z,63.13
2016-04-04T06:02:02.266Z,61.22
2016-04-04T06:03:02.254Z,60.1
2016-04-04T06:04:02.256Z,58.18
2016-04-04T06:05:02.259Z,56.75
2016-04-04T06:06:02.262Z,56.37
2016-04-04T06:07:02.265Z,55.41
2016-04-04T06:08:02.251Z,54.36
2016-04-04T06:09:02.254Z,54.07
2016-04-04T06:10:02.257Z,53.81
2016-04-04T06:11:02.259Z,53.33
2016-04-04T06:12:02.262Z,52.2
2016-04-04T06:13:02.265Z,51.34
2016-04-04T06:14:02.283Z,50.41
2016-04-04T06:15:02.270Z,49.48
2016-04-04T06:16:02.273Z,48.16
2016-04-04T06:17:02.291Z,46.74
2016-04-04T06:18:02.278Z,45.52
2016-04-04T06:19:02.297Z,44.41
2016-04-04T06:20:02.300Z,42.43
2016-04-04T06:21:02.286Z,40.74
2016-04-04T06:22:02.289Z,38.54
2016-04-04T06:23:02.308Z,37.21
2016-04-04T06:24:02.310Z,35.5
2016-04-04T06:25:02.313Z,33.78
2016-04-04T06:26:02.315Z,32.26
2016-04-04T06:27:02.302Z,31.49
2016-04-04T06:28:02.321Z,30.52
2016-04-04T06:29:02.323Z,29.86
2016-04-04T06:30:02.327Z,29.1
2016-04-04T06:31:02.329Z,28.25
2016-04-04T06:32:02.332Z,27.78
2016-04-04T06:33:02.334Z,26.25
2016-04-04T06:34:02.338Z,26.16
2016-04-04T06:35:02.340Z,25.48
2016-04-04T06:36:02.342Z,24.62
2016-04-04T06:37:02.346Z,24.05
2016-04-04T06:38:02.348Z,23.48
2016-04-04T06:39:02.366Z,23
2016-04-04T06:40:02.368Z,21.95
2016-04-04T06:41:02.387Z,21.56
2016-04-04T06:42:02.374Z,21.28
2016-04-04T06:43:02.392Z,20.71
2016-04-04T06:44:02.379Z,19.84
2016-04-04T06:45:02.429Z,19.45
2016-04-04T06:46:02.417Z,19.27
2016-04-04T06:47:02.403Z,18.98
2016-04-04T06:48:02.406Z,18.49
2016-04-04T06:49:02.409Z,18.3
2016-04-04T06:50:02.411Z,18.3
2016-04-04T06:51:02.414Z,17.91
2016-04-04T06:52:02.432Z,17.72
2016-04-04T06:53:02.435Z,17.34
2016-04-04T06:54:02.438Z,17.24
2016-04-04T06:55:02.456Z,17.24
2016-04-04T06:56:02.443Z,16.76
2016-04-04T06:57:02.461Z,16.28
2016-04-04T06:58:02.464Z,16.28
2016-04-04T06:59:02.466Z,15.7
2016-04-04T07:00:02.485Z,15.22
2016-04-04T07:01:02.477Z,15.22
2016-04-04T07:02:02.480Z,14.92
2016-04-04T07:03:02.482Z,15.12
2016-04-04T07:04:02.501Z,14.73
2016-04-04T07:05:02.503Z,14.73
2016-04-04T07:06:02.507Z,14.45
2016-04-04T07:07:02.524Z,14.26
2016-04-04T07:08:02.527Z,14.26
2016-04-04T07:09:02.529Z,13.88
2016-04-04T07:10:02.548Z,12.91
2016-04-04T07:11:02.550Z,13.01
2016-04-04T07:12:02.553Z,12.72
2016-04-04T07:13:02.556Z,12.54
2016-04-04T07:14:02.558Z,11.95
2016-04-04T07:15:02.562Z,12.05
2016-04-04T07:16:02.580Z,11.38
2016-04-04T07:17:02.597Z,12.06
2016-04-04T07:18:02.600Z,13.04
2016-04-04T07:19:02.619Z,13.32
2016-04-04T07:20:02.622Z,14.28
2016-04-04T07:21:02.608Z,15.53
2016-04-04T07:22:02.612Z,16.86
2016-04-04T07:23:02.614Z,17.24
2016-04-04T07:24:02.633Z,18.29
2016-04-04T07:25:02.635Z,18.48
2016-04-04T07:26:02.638Z,18.19
2016-04-04T07:27:02.641Z,17.42
2016-04-04T07:28:02.660Z,16.75
2016-04-04T07:29:02.662Z,15.8
2016-04-04T07:30:02.664Z,15.05
2016-04-04T07:31:02.668Z,14.18
2016-04-04T07:32:02.686Z,13.41
2016-04-04T07:33:02.704Z,13.03
2016-04-04T07:34:02.690Z,12.06
2016-04-04T07:35:02.694Z,11.48
2016-04-04T07:36:02.711Z,10.9
2016-04-04T07:37:02.730Z,10.32
2016-04-04T07:38:02.717Z,9.93
2016-04-04T07:39:02.751Z,10.13
2016-04-04T07:40:02.567Z,9.94
2016-04-04T07:41:02.741Z,9.55
2016-04-04T07:42:02.743Z,9.16
2016-04-04T07:43:02.761Z,8.97
2016-04-04T07:44:02.765Z,9.75
2016-04-04T07:45:02.768Z,10.24
2016-04-04T07:46:02.770Z,11.2
2016-04-04T07:47:02.788Z,12.85
2016-04-04T07:48:02.791Z,14
2016-04-04T07:49:02.809Z,15.25
2016-04-04T07:50:02.797Z,16.49
2016-04-04T07:51:02.814Z,17.35
2016-04-04T07:52:02.817Z,18.4
2016-04-04T07:53:02.819Z,19.45
2016-04-04T07:54:02.823Z,20.42
2016-04-04T07:55:02.841Z,20.6
2016-04-04T07:56:02.859Z,20.89
2016-04-04T07:57:02.847Z,20.99
2016-04-04T07:58:02.849Z,20.03
2016-04-04T07:59:02.852Z,19.45
2016-04-04T08:00:02.870Z,18.3
2016-04-04T08:01:02.857Z,16.86
2016-04-04T08:02:02.875Z,14.95
2016-04-04T08:03:02.879Z,13.7
2016-04-04T08:04:02.896Z,12.84
2016-04-04T08:05:02.899Z,11.38
2016-04-04T08:06:02.902Z,10.41
2016-04-04T08:07:02.905Z,10.13
2016-04-04T08:08:02.907Z,9.55
2016-04-04T08:09:02.909Z,8.47
2016-04-04T08:10:02.928Z,8.18
2016-04-04T08:11:02.931Z,7.89
2016-04-04T08:12:02.934Z,7.41
2016-04-04T08:13:02.951Z,7.12
2016-04-04T08:14:02.954Z,6.82
2016-04-04T08:15:02.956Z,6.82
2016-04-04T08:16:02.959Z,6.43
2016-04-04T08:17:02.962Z,6.13
2016-04-04T08:18:02.981Z,6.33
2016-04-04T08:19:02.984Z,6.52
2016-04-04T08:20:02.986Z,6.03
2016-04-04T08:21:02.989Z,5.83
2016-04-04T08:22:03.008Z,6.13
2016-04-04T08:23:03.010Z,5.83
2016-04-04T08:24:03.013Z,5.94
2016-04-04T08:25:03.031Z,5.83
2016-04-04T08:26:03.034Z,5.64
2016-04-04T08:27:03.036Z,5.64
2016-04-04T08:28:03.039Z,5.34
2016-04-04T08:29:03.057Z,4.85
2016-04-04T08:30:03.061Z,5.15
2016-04-04T08:31:03.063Z,4.75
2016-04-04T08:32:03.066Z,4.66
2016-04-04T08:33:03.068Z,4.96
2016-04-04T08:34:03.077Z,5.05
2016-04-04T08:35:03.068Z,4.56
2016-04-04T08:36:03.074Z,4.56
2016-04-04T08:37:03.050Z,4.56
2016-04-04T08:38:03.040Z,4.06
2016-04-04T08:39:03.053Z,4.06
2016-04-04T08:40:03.051Z,4.06
2016-04-04T08:41:03.065Z,3.77
2016-04-04T08:42:03.064Z,3.77
2016-04-04T08:43:03.062Z,3.77
2016-04-04T08:44:03.063Z,3.87
2016-04-04T08:45:03.064Z,4.06
2016-04-04T08:46:03.081Z,4.07
2016-04-04T08:47:03.067Z,3.67
2016-04-04T08:48:03.067Z,3.87
2016-04-04T08:49:03.085Z,3.77
2016-04-04T08:50:03.086Z,3.87
2016-04-04T08:51:03.104Z,3.87
2016-04-04T08:52:03.106Z,3.87
2016-04-04T08:53:03.092Z,4.07
2016-04-04T08:54:03.110Z,3.67
2016-04-04T08:55:03.113Z,3.67
2016-04-04T08:56:03.115Z,3.58
2016-04-04T08:57:03.117Z,3.38
2016-04-04T08:58:03.150Z,3.38
2016-04-04T08:59:03.153Z,3.97
2016-04-04T09:00:03.156Z,3.67
2016-04-04T09:01:03.144Z,3.67
2016-04-04T09:02:03.146Z,3.87
2016-04-04T09:03:03.163Z,4.07
2016-04-04T09:04:03.167Z,4.07
2016-04-04T09:05:03.185Z,3.87
2016-04-04T09:06:03.172Z,4.07
2016-04-04T09:07:03.190Z,3.77
2016-04-04T09:08:03.193Z,4.27
2016-04-04T09:09:03.196Z,3.87
2016-04-04T09:10:03.215Z,3.87
2016-04-04T09:11:03.201Z,4.06
2016-04-04T09:12:03.204Z,4.17
2016-04-04T09:13:03.206Z,3.97
2016-04-04T09:14:03.209Z,3.77
2016-04-04T09:15:03.212Z,4.06
2016-04-04T09:16:03.231Z,4.06
2016-04-04T09:17:03.233Z,4.56
2016-04-04T09:18:03.251Z,4.26
2016-04-04T09:19:03.254Z,4.16
2016-04-04T09:20:03.241Z,4.27
2016-04-04T09:21:03.244Z,4.06
2016-04-04T09:22:03.262Z,4.06
2016-04-04T09:23:03.264Z,4.27
2016-04-04T09:24:03.267Z,4.46
2016-04-04T09:25:03.286Z,4.36
2016-04-04T09:26:03.273Z,4.76
2016-04-04T09:27:03.275Z,4.56
2016-04-04T09:28:03.294Z,4.75
2016-04-04T09:29:03.297Z,4.75
2016-04-04T09:30:03.299Z,4.36
2016-04-04T09:31:03.302Z,4.36
2016-04-04T09:32:03.305Z,4.76
2016-04-04T09:33:03.322Z,4.75
2016-04-04T09:34:03.325Z,5.15
2016-04-04T09:35:03.313Z,5.64
2016-04-04T09:36:03.330Z,6.33
2016-04-04T09:37:03.333Z,6.71
2016-04-04T09:38:03.336Z,7.5
2016-04-04T09:39:03.355Z,7.98
2016-04-04T09:40:03.341Z,9.05
2016-04-04T09:41:03.344Z,9.73
2016-04-04T09:42:03.346Z,11.18
2016-04-04T09:43:03.349Z,12.43
2016-04-04T09:44:03.352Z,13.59
2016-04-04T09:45:03.355Z,14.55
2016-04-04T09:46:03.374Z,15.7
2016-04-04T09:47:03.360Z,16.96
2016-04-04T09:48:03.394Z,17.72
2016-04-04T09:49:03.382Z,18.58
2016-04-04T09:50:03.385Z,19.44
2016-04-04T09:51:03.387Z,20.01
2016-04-04T09:52:03.405Z,20.78
2016-04-04T09:53:03.408Z,21.55
2016-04-04T09:54:03.394Z,22.99
2016-04-04T09:55:03.413Z,23.08
2016-04-04T09:56:03.417Z,23.75
2016-04-04T09:57:03.419Z,24.33
2016-04-04T09:58:03.422Z,24.9
2016-04-04T09:59:03.424Z,25.66
2016-04-04T10:00:03.442Z,26.34
2016-04-04T10:01:03.430Z,26.9
2016-04-04T10:02:03.433Z,27.39
2016-04-04T10:03:03.436Z,27.76
2016-04-04T10:04:03.438Z,27.47
2016-04-04T10:05:03.471Z,27.57
2016-04-04T10:06:03.458Z,27.86
2016-04-04T10:07:03.461Z,27.67
2016-04-04T10:08:03.464Z,28.25
2016-04-04T10:09:03.466Z,28.54
2016-04-04T10:10:03.474Z,28.72
2016-04-04T10:11:03.492Z,29.1
2016-04-04T10:12:03.480Z,29.01
2016-04-04T10:13:03.482Z,29.2
2016-04-04T10:14:03.501Z,29.1
2016-04-04T10:15:03.487Z,29.39
2016-04-04T10:16:03.506Z,28.81
2016-04-04T10:17:03.493Z,28.91
2016-04-04T10:18:03.496Z,28.81
2016-04-04T10:19:03.498Z,28.92
2016-04-04T10:20:03.517Z,28.64
2016-04-04T10:21:03.519Z,28.34
2016-04-04T10:22:03.522Z,28.25
2016-04-04T10:23:03.525Z,28.44
2016-04-04T10:24:03.528Z,28.64
2016-04-04T10:25:03.530Z,28.15
2016-04-04T10:26:03.533Z,28.15
2016-04-04T10:27:03.536Z,28.15
2016-04-04T10:28:03.539Z,28.34
2016-04-04T10:29:03.541Z,28.23
2016-04-04T10:30:03.544Z,28.25
2016-04-04T10:31:03.561Z,28.54
2016-04-04T10:32:03.564Z,28.05
2016-04-04T10:33:03.551Z,27.86
2016-04-04T10:34:03.570Z,27.57
2016-04-04T10:35:03.573Z,27.67
2016-04-04T10:36:03.575Z,27.28
2016-04-04T10:37:03.577Z,26.89
2016-04-04T10:38:03.580Z,26.79
2016-04-04T10:39:03.582Z,26.21
2016-04-04T10:40:03.585Z,26.41
2016-04-04T10:41:03.589Z,26.12
2016-04-04T10:42:03.591Z,26.31
2016-04-04T10:43:03.594Z,26.52
2016-04-04T10:44:03.612Z,26.23
2016-04-04T10:45:03.615Z,26.14
2016-04-04T10:46:03.602Z,26.81
2016-04-04T10:47:03.605Z,26.99
2016-04-04T10:48:03.623Z,26.51
2016-04-04T10:49:03.626Z,26.41
2016-04-04T10:50:03.628Z,26.03
2016-04-04T10:51:03.631Z,25.73
2016-04-04T10:52:03.634Z,25.54
2016-04-04T10:53:03.637Z,25.55
2016-04-04T10:54:03.655Z,25.44
2016-04-04T10:55:03.658Z,25.44
2016-04-04T10:56:03.644Z,25.35
2016-04-04T10:57:03.647Z,25.15
2016-04-04T10:58:03.650Z,24.57
2016-04-04T10:59:03.653Z,24.85
2016-04-04T11:00:03.671Z,24.95
2016-04-04T11:01:03.658Z,24.85
2016-04-04T11:02:03.677Z,24.93
2016-04-04T11:03:03.680Z,24.95
2016-04-04T11:04:03.682Z,24.76
2016-04-04T11:05:03.685Z,25.23
2016-04-04T11:06:03.687Z,24.76
2016-04-04T11:07:03.691Z,24.76
2016-04-04T11:08:03.693Z,24.85
2016-04-04T11:09:03.705Z,24.76
2016-04-04T11:10:03.707Z,24.95
2016-04-04T11:11:03.710Z,24.93
2016-04-04T11:12:03.712Z,25.23
2016-04-04T11:13:03.700Z,25.34
2016-04-04T11:14:03.718Z,25.52
2016-04-04T11:15:03.721Z,25.43
2016-04-04T11:16:03.723Z,25.52
2016-04-04T11:17:03.773Z,25.52
2016-04-04T11:18:03.729Z,25.52
2016-04-04T11:19:03.732Z,25.34
2016-04-04T11:20:03.734Z,25.34
2016-04-04T11:21:03.737Z,25.82
2016-04-04T11:22:03.740Z,27.26
2016-04-04T11:23:03.759Z,28.33
2016-04-04T11:24:03.761Z,28.8
2016-04-04T11:25:03.764Z,29.28
2016-04-04T11:26:03.783Z,29.57
2016-04-04T11:27:03.769Z,29.86
2016-04-04T11:28:03.772Z,30.05
2016-04-04T11:29:03.775Z,30.52
2016-04-04T11:30:03.777Z,30.63
2016-04-04T11:31:03.780Z,31.02
2016-04-04T11:32:03.782Z,30.82
2016-04-04T11:33:03.785Z,30.82
2016-04-04T11:34:03.787Z,30.72
2016-04-04T11:35:03.790Z,30.43
2016-04-04T11:36:03.793Z,30.33
2016-04-04T11:37:03.795Z,30.04
2016-04-04T11:38:03.798Z,29.85
2016-04-04T11:39:03.807Z,29.56
2016-04-04T11:40:03.809Z,29.27
2016-04-04T11:41:03.812Z,28.88
2016-04-04T11:42:03.814Z,29.17
2016-04-04T11:43:03.817Z,29.56
2016-04-04T11:44:03.820Z,29.85
2016-04-04T11:45:03.822Z,29.85
2016-04-04T11:46:03.825Z,29.85
2016-04-04T11:47:03.827Z,30.04
2016-04-04T11:48:03.846Z,29.94
2016-04-04T11:49:03.849Z,29.94
2016-04-04T11:50:03.851Z,29.75
2016-04-04T11:51:03.854Z,29.46
2016-04-04T11:52:03.857Z,29.36
2016-04-04T11:53:03.860Z,29.27
2016-04-04T11:54:03.877Z,29.36
2016-04-04T11:55:03.866Z,29.36
2016-04-04T11:56:03.868Z,29.27
2016-04-04T11:57:03.871Z,28.78
2016-04-04T11:58:03.874Z,28.88
2016-04-04T11:59:03.876Z,28.88
2016-04-04T12:00:03.879Z,28.5
2016-04-04T12:01:03.896Z,28.69
2016-04-04T12:02:03.899Z,28.98
2016-04-04T12:03:03.902Z,28.88
2016-04-04T12:04:03.889Z,28.78
2016-04-04T12:05:03.892Z,28.5
2016-04-04T12:06:03.894Z,28.69
2016-04-04T12:07:03.912Z,28.59
2016-04-04T12:08:03.900Z,28.59
2016-04-04T12:09:03.902Z,28.4
2016-04-04T12:10:03.937Z,28.3
2016-04-04T12:11:03.923Z,28.5
2016-04-04T12:12:03.926Z,28.4
2016-04-04T12:13:03.929Z,28.2
2016-04-04T12:14:03.776Z,28.3
2016-04-04T12:15:03.934Z,28.02
2016-04-04T12:16:03.937Z,28.02
2016-04-04T12:17:03.939Z,28.2
2016-04-04T12:18:03.942Z,28.4
2016-04-04T12:19:03.961Z,28.3
2016-04-04T12:20:03.932Z,28.11
2016-04-04T12:21:03.951Z,28.4
2016-04-04T12:22:03.953Z,28.58
2016-04-04T12:23:03.956Z,28.58
2016-04-04T12:24:03.959Z,28.29
2016-04-04T12:25:03.961Z,28.69
2016-04-04T12:26:03.964Z,28.2
2016-04-04T12:27:03.967Z,28.3
2016-04-04T12:28:03.985Z,28.58
2016-04-04T12:29:03.972Z,28.39
2016-04-04T12:30:03.974Z,28.4
2016-04-04T12:31:03.977Z,28.5
2016-04-04T12:32:03.996Z,28.3
2016-04-04T12:33:03.998Z,28.4
2016-04-04T12:34:03.985Z,28.3
2016-04-04T12:35:04.003Z,27.92
2016-04-04T12:36:04.006Z,27.62
2016-04-04T12:37:04.009Z,27.53
2016-04-04T12:38:04.012Z,27.62
2016-04-04T12:39:04.014Z,27.44
2016-04-04T12:40:04.018Z,27.53
2016-04-04T12:41:04.020Z,27.62
2016-04-04T12:42:04.023Z,27.34
2016-04-04T12:43:04.026Z,27.53
2016-04-04T12:44:04.028Z,27.44
2016-04-04T12:45:04.031Z,27.82
2016-04-04T12:46:04.033Z,27.82
2016-04-04T12:47:04.036Z,27.44
2016-04-04T12:48:04.039Z,27.53
2016-04-04T12:49:04.041Z,27.62
2016-04-04T12:50:04.044Z,27.44
2016-04-04T12:51:04.047Z,27.62
2016-04-04T12:52:04.049Z,27.62
2016-04-04T12:53:04.067Z,27.72
2016-04-04T12:54:04.054Z,27.62
2016-04-04T12:55:04.072Z,27.53
2016-04-04T12:56:04.075Z,27.34
2016-04-04T12:57:04.062Z,27.53
2016-04-04T12:58:04.066Z,27.72